sensor_id;sensor_type;location;lat;lon;timestamp;temperature;humidity
10431;DHT22;5262;59.958;17.726;2023-04-03T00:00:56;-6.40;99.90
10431;DHT22;5262;59.958;17.726;2023-04-03T00:03:22;-6.30;99.90
10431;DHT22;5262;59.958;17.726;2023-04-03T00:05:48;-6.40;99.90
10431;DHT22;5262;59.958;17.726;2023-04-03T00:08:13;-6.30;99.90
10431;DHT22;5262;59.958;17.726;2023-04-03T00:10:40;-6.40;99.90
10431;DHT22;5262;59.958;17.726;2023-04-03T00:13:06;-6.40;99.90
10431;DHT22;5262;59.958;17.726;2023-04-03T00:15:33;-6.40;99.90
10431;DHT22;5262;59.958;17.726;2023-04-03T00:17:59;-6.50;99.90
10431;DHT22;5262;59.958;17.726;2023-04-03T00:20:24;-6.50;99.90
10431;DHT22;5262;59.958;17.726;2023-04-03T00:22:50;-6.50;99.90
10431;DHT22;5262;59.958;17.726;2023-04-03T00:25:16;-6.50;99.90
10431;DHT22;5262;59.958;17.726;2023-04-03T00:27:41;-6.50;99.90
10431;DHT22;5262;59.958;17.726;2023-04-03T00:30:09;-6.50;99.90
10431;DHT22;5262;59.958;17.726;2023-04-03T00:32:36;-6.60;99.90
10431;DHT22;5262;59.958;17.726;2023-04-03T00:35:02;-6.60;99.90
10431;DHT22;5262;59.958;17.726;2023-04-03T00:37:28;-6.60;99.90
10431;DHT22;5262;59.958;17.726;2023-04-03T00:39:53;-6.60;99.90
10431;DHT22;5262;59.958;17.726;2023-04-03T00:42:19;-6.60;99.90
10431;DHT22;5262;59.958;17.726;2023-04-03T00:47:12;-6.60;99.90
10431;DHT22;5262;59.958;17.726;2023-04-03T00:49:39;-6.60;99.90
10431;DHT22;5262;59.958;17.726;2023-04-03T00:52:10;-6.60;99.90
10431;DHT22;5262;59.958;17.726;2023-04-03T00:54:38;-6.60;99.90
10431;DHT22;5262;59.958;17.726;2023-04-03T00:57:06;-6.60;99.90
10431;DHT22;5262;59.958;17.726;2023-04-03T00:59:35;-6.60;99.90
10431;DHT22;5262;59.958;17.726;2023-04-03T01:02:01;-6.60;99.90
10431;DHT22;5262;59.958;17.726;2023-04-03T01:04:33;-6.70;99.90
10431;DHT22;5262;59.958;17.726;2023-04-03T01:07:14;-6.70;99.90
10431;DHT22;5262;59.958;17.726;2023-04-03T01:09:41;-6.80;99.90
10431;DHT22;5262;59.958;17.726;2023-04-03T01:14:44;-7.00;99.90
10431;DHT22;5262;59.958;17.726;2023-04-03T01:17:34;-7.00;99.90
10431;DHT22;5262;59.958;17.726;2023-04-03T01:25:55;-7.20;99.90
10431;DHT22;5262;59.958;17.726;2023-04-03T01:30:56;-7.10;99.90
10431;DHT22;5262;59.958;17.726;2023-04-03T01:33:25;-7.10;99.90
10431;DHT22;5262;59.958;17.726;2023-04-03T01:35:50;-7.10;99.90
10431;DHT22;5262;59.958;17.726;2023-04-03T01:38:16;-7.10;99.90
10431;DHT22;5262;59.958;17.726;2023-04-03T01:40:42;-7.10;99.90
10431;DHT22;5262;59.958;17.726;2023-04-03T01:43:08;-7.20;99.90
10431;DHT22;5262;59.958;17.726;2023-04-03T01:45:33;-7.10;99.90
10431;DHT22;5262;59.958;17.726;2023-04-03T01:47:59;-7.10;99.90
10431;DHT22;5262;59.958;17.726;2023-04-03T01:50:25;-7.10;99.90
10431;DHT22;5262;59.958;17.726;2023-04-03T01:52:50;-7.00;99.90
10431;DHT22;5262;59.958;17.726;2023-04-03T01:55:16;-7.00;99.90
10431;DHT22;5262;59.958;17.726;2023-04-03T01:57:42;-7.00;99.90
10431;DHT22;5262;59.958;17.726;2023-04-03T02:00:08;-6.90;99.90
10431;DHT22;5262;59.958;17.726;2023-04-03T02:02:34;-6.90;99.90
10431;DHT22;5262;59.958;17.726;2023-04-03T02:05:00;-6.90;99.90
10431;DHT22;5262;59.958;17.726;2023-04-03T02:07:26;-6.90;99.90
10431;DHT22;5262;59.958;17.726;2023-04-03T02:09:51;-6.90;99.90
10431;DHT22;5262;59.958;17.726;2023-04-03T02:12:17;-6.90;99.90
10431;DHT22;5262;59.958;17.726;2023-04-03T02:14:43;-6.90;99.90
10431;DHT22;5262;59.958;17.726;2023-04-03T02:17:08;-7.00;99.90
10431;DHT22;5262;59.958;17.726;2023-04-03T02:19:35;-7.00;99.90
10431;DHT22;5262;59.958;17.726;2023-04-03T02:22:05;-7.00;99.90
10431;DHT22;5262;59.958;17.726;2023-04-03T02:24:31;-7.10;99.90
10431;DHT22;5262;59.958;17.726;2023-04-03T02:26:59;-7.10;99.90
10431;DHT22;5262;59.958;17.726;2023-04-03T02:29:25;-7.20;99.90
10431;DHT22;5262;59.958;17.726;2023-04-03T02:31:51;-7.20;99.90
10431;DHT22;5262;59.958;17.726;2023-04-03T02:34:17;-7.20;99.90
10431;DHT22;5262;59.958;17.726;2023-04-03T02:36:43;-7.20;99.90
10431;DHT22;5262;59.958;17.726;2023-04-03T02:39:09;-7.20;99.90
10431;DHT22;5262;59.958;17.726;2023-04-03T02:41:34;-7.30;99.90
10431;DHT22;5262;59.958;17.726;2023-04-03T02:44:05;-7.40;99.90
10431;DHT22;5262;59.958;17.726;2023-04-03T02:46:32;-7.40;99.90
10431;DHT22;5262;59.958;17.726;2023-04-03T02:48:58;-7.50;99.90
10431;DHT22;5262;59.958;17.726;2023-04-03T02:51:24;-7.50;99.90
10431;DHT22;5262;59.958;17.726;2023-04-03T02:53:50;-7.60;99.90
10431;DHT22;5262;59.958;17.726;2023-04-03T02:56:16;-7.60;99.90
10431;DHT22;5262;59.958;17.726;2023-04-03T02:58:43;-7.60;99.90
10431;DHT22;5262;59.958;17.726;2023-04-03T03:01:09;-7.60;99.90
10431;DHT22;5262;59.958;17.726;2023-04-03T03:03:35;-7.60;99.90
10431;DHT22;5262;59.958;17.726;2023-04-03T03:06:12;-7.50;99.90
10431;DHT22;5262;59.958;17.726;2023-04-03T03:08:38;-7.50;99.90
10431;DHT22;5262;59.958;17.726;2023-04-03T03:11:04;-7.50;99.90
10431;DHT22;5262;59.958;17.726;2023-04-03T03:13:30;-7.50;99.90
10431;DHT22;5262;59.958;17.726;2023-04-03T03:15:56;-7.50;99.90
10431;DHT22;5262;59.958;17.726;2023-04-03T03:18:22;-7.50;99.90
10431;DHT22;5262;59.958;17.726;2023-04-03T03:20:52;-7.50;99.90
10431;DHT22;5262;59.958;17.726;2023-04-03T03:23:18;-7.60;99.90
10431;DHT22;5262;59.958;17.726;2023-04-03T03:25:44;-7.70;99.90
10431;DHT22;5262;59.958;17.726;2023-04-03T03:28:09;-7.70;99.90
10431;DHT22;5262;59.958;17.726;2023-04-03T03:30:35;-7.80;99.90
10431;DHT22;5262;59.958;17.726;2023-04-03T03:33:01;-7.70;99.90
10431;DHT22;5262;59.958;17.726;2023-04-03T03:35:29;-7.70;99.90
10431;DHT22;5262;59.958;17.726;2023-04-03T03:37:55;-7.60;99.90
10431;DHT22;5262;59.958;17.726;2023-04-03T03:40:21;-7.60;99.90
10431;DHT22;5262;59.958;17.726;2023-04-03T03:42:46;-7.60;99.90
10431;DHT22;5262;59.958;17.726;2023-04-03T03:45:12;-7.60;99.90
10431;DHT22;5262;59.958;17.726;2023-04-03T03:47:38;-7.60;99.90
10431;DHT22;5262;59.958;17.726;2023-04-03T03:50:04;-7.60;99.90
10431;DHT22;5262;59.958;17.726;2023-04-03T03:52:30;-7.60;99.90
10431;DHT22;5262;59.958;17.726;2023-04-03T03:54:56;-7.70;99.90
10431;DHT22;5262;59.958;17.726;2023-04-03T03:57:22;-7.70;99.90
10431;DHT22;5262;59.958;17.726;2023-04-03T03:59:47;-7.80;99.90
10431;DHT22;5262;59.958;17.726;2023-04-03T04:02:14;-7.70;99.90
10431;DHT22;5262;59.958;17.726;2023-04-03T04:04:40;-7.70;99.90
10431;DHT22;5262;59.958;17.726;2023-04-03T04:07:05;-7.70;99.90
10431;DHT22;5262;59.958;17.726;2023-04-03T04:09:31;-7.70;99.90
10431;DHT22;5262;59.958;17.726;2023-04-03T04:11:57;-7.70;99.90
10431;DHT22;5262;59.958;17.726;2023-04-03T04:14:23;-7.70;99.90
10431;DHT22;5262;59.958;17.726;2023-04-03T04:16:48;-7.70;99.90
10431;DHT22;5262;59.958;17.726;2023-04-03T04:19:14;-7.70;99.90
10431;DHT22;5262;59.958;17.726;2023-04-03T04:21:40;-7.80;99.90
10431;DHT22;5262;59.958;17.726;2023-04-03T04:24:07;-7.80;99.90
10431;DHT22;5262;59.958;17.726;2023-04-03T04:26:33;-7.80;99.90
10431;DHT22;5262;59.958;17.726;2023-04-03T04:28:59;-7.80;99.90
10431;DHT22;5262;59.958;17.726;2023-04-03T04:31:25;-7.90;99.90
10431;DHT22;5262;59.958;17.726;2023-04-03T04:33:52;-7.80;99.90
10431;DHT22;5262;59.958;17.726;2023-04-03T04:36:18;-7.80;99.90
10431;DHT22;5262;59.958;17.726;2023-04-03T04:38:44;-7.80;99.90
10431;DHT22;5262;59.958;17.726;2023-04-03T04:41:09;-7.90;99.90
10431;DHT22;5262;59.958;17.726;2023-04-03T04:43:35;-7.90;99.90
10431;DHT22;5262;59.958;17.726;2023-04-03T04:46:06;-7.90;99.90
10431;DHT22;5262;59.958;17.726;2023-04-03T04:48:33;-7.80;99.90
10431;DHT22;5262;59.958;17.726;2023-04-03T04:50:58;-7.90;99.90
10431;DHT22;5262;59.958;17.726;2023-04-03T04:53:24;-7.90;99.90
10431;DHT22;5262;59.958;17.726;2023-04-03T04:55:50;-7.80;99.90
10431;DHT22;5262;59.958;17.726;2023-04-03T04:58:15;-7.80;99.90
10431;DHT22;5262;59.958;17.726;2023-04-03T05:00:41;-7.60;99.90
10431;DHT22;5262;59.958;17.726;2023-04-03T05:03:07;-7.60;99.90
10431;DHT22;5262;59.958;17.726;2023-04-03T05:05:32;-7.40;99.90
10431;DHT22;5262;59.958;17.726;2023-04-03T05:07:58;-7.40;99.90
10431;DHT22;5262;59.958;17.726;2023-04-03T05:10:23;-7.40;99.90
10431;DHT22;5262;59.958;17.726;2023-04-03T05:12:49;-7.30;99.90
10431;DHT22;5262;59.958;17.726;2023-04-03T05:15:15;-7.20;99.90
10431;DHT22;5262;59.958;17.726;2023-04-03T05:17:40;-7.10;99.90
10431;DHT22;5262;59.958;17.726;2023-04-03T05:20:06;-7.00;99.90
10431;DHT22;5262;59.958;17.726;2023-04-03T05:22:32;-7.10;99.90
10431;DHT22;5262;59.958;17.726;2023-04-03T05:24:58;-7.00;99.90
10431;DHT22;5262;59.958;17.726;2023-04-03T05:27:23;-7.00;99.90
10431;DHT22;5262;59.958;17.726;2023-04-03T05:29:50;-6.90;99.90
10431;DHT22;5262;59.958;17.726;2023-04-03T05:32:15;-6.90;99.90
10431;DHT22;5262;59.958;17.726;2023-04-03T05:34:43;-6.70;99.90
10431;DHT22;5262;59.958;17.726;2023-04-03T05:37:10;-6.70;99.90
10431;DHT22;5262;59.958;17.726;2023-04-03T05:39:36;-6.60;99.90
10431;DHT22;5262;59.958;17.726;2023-04-03T05:42:03;-6.60;99.90
10431;DHT22;5262;59.958;17.726;2023-04-03T05:44:29;-6.60;99.90
10431;DHT22;5262;59.958;17.726;2023-04-03T05:46:55;-6.50;99.90
10431;DHT22;5262;59.958;17.726;2023-04-03T05:49:20;-6.50;99.90
10431;DHT22;5262;59.958;17.726;2023-04-03T05:51:46;-6.40;99.90
10431;DHT22;5262;59.958;17.726;2023-04-03T05:54:25;-6.30;99.90
10431;DHT22;5262;59.958;17.726;2023-04-03T05:56:52;-6.20;99.90
10431;DHT22;5262;59.958;17.726;2023-04-03T05:59:19;-6.10;99.90
10431;DHT22;5262;59.958;17.726;2023-04-03T06:01:45;-6.00;99.90
10431;DHT22;5262;59.958;17.726;2023-04-03T06:04:11;-5.90;99.90
10431;DHT22;5262;59.958;17.726;2023-04-03T06:06:48;-5.80;99.90
10431;DHT22;5262;59.958;17.726;2023-04-03T06:09:15;-5.70;99.90
10431;DHT22;5262;59.958;17.726;2023-04-03T06:11:42;-5.50;99.90
10431;DHT22;5262;59.958;17.726;2023-04-03T06:14:08;-5.30;99.90
10431;DHT22;5262;59.958;17.726;2023-04-03T06:16:34;-5.10;99.90
10431;DHT22;5262;59.958;17.726;2023-04-03T06:19:00;-4.90;99.90
10431;DHT22;5262;59.958;17.726;2023-04-03T06:21:26;-4.60;99.90
10431;DHT22;5262;59.958;17.726;2023-04-03T06:23:52;-4.40;99.90
10431;DHT22;5262;59.958;17.726;2023-04-03T06:26:17;-4.20;99.90
10431;DHT22;5262;59.958;17.726;2023-04-03T06:28:43;-4.00;99.90
10431;DHT22;5262;59.958;17.726;2023-04-03T06:31:09;-3.70;99.90
10431;DHT22;5262;59.958;17.726;2023-04-03T06:33:35;-3.30;99.90
10431;DHT22;5262;59.958;17.726;2023-04-03T06:36:04;-3.30;99.90
10431;DHT22;5262;59.958;17.726;2023-04-03T06:38:31;-3.00;99.90
10431;DHT22;5262;59.958;17.726;2023-04-03T06:40:57;-2.50;99.90
10431;DHT22;5262;59.958;17.726;2023-04-03T06:43:23;-2.60;99.90
10431;DHT22;5262;59.958;17.726;2023-04-03T06:45:50;-2.10;99.90
10431;DHT22;5262;59.958;17.726;2023-04-03T06:48:16;-2.10;99.90
10431;DHT22;5262;59.958;17.726;2023-04-03T06:50:42;-1.70;99.90
10431;DHT22;5262;59.958;17.726;2023-04-03T06:53:08;-1.10;99.90
10431;DHT22;5262;59.958;17.726;2023-04-03T06:55:34;-0.90;99.90
10431;DHT22;5262;59.958;17.726;2023-04-03T06:58:00;-0.20;99.90
10431;DHT22;5262;59.958;17.726;2023-04-03T07:00:26;0.00;99.90
10431;DHT22;5262;59.958;17.726;2023-04-03T07:02:51;0.50;99.90
10431;DHT22;5262;59.958;17.726;2023-04-03T07:05:18;1.10;99.90
10431;DHT22;5262;59.958;17.726;2023-04-03T07:07:43;1.70;99.90
10431;DHT22;5262;59.958;17.726;2023-04-03T07:10:09;2.30;99.90
10431;DHT22;5262;59.958;17.726;2023-04-03T07:12:36;2.90;99.90
10431;DHT22;5262;59.958;17.726;2023-04-03T07:15:02;3.80;99.90
10431;DHT22;5262;59.958;17.726;2023-04-03T07:17:28;4.00;99.50
10431;DHT22;5262;59.958;17.726;2023-04-03T07:19:54;4.90;98.40
10431;DHT22;5262;59.958;17.726;2023-04-03T07:22:19;5.50;97.10
10431;DHT22;5262;59.958;17.726;2023-04-03T07:24:45;5.90;96.30
10431;DHT22;5262;59.958;17.726;2023-04-03T07:27:11;5.80;95.00
10431;DHT22;5262;59.958;17.726;2023-04-03T07:29:38;5.20;95.20
10431;DHT22;5262;59.958;17.726;2023-04-03T07:32:04;6.30;93.50
10431;DHT22;5262;59.958;17.726;2023-04-03T07:34:31;6.30;92.30
10431;DHT22;5262;59.958;17.726;2023-04-03T07:36:58;7.30;92.20
10431;DHT22;5262;59.958;17.726;2023-04-03T07:39:24;7.20;90.20
10431;DHT22;5262;59.958;17.726;2023-04-03T07:41:50;7.60;89.60
10431;DHT22;5262;59.958;17.726;2023-04-03T07:44:16;7.80;87.70
10431;DHT22;5262;59.958;17.726;2023-04-03T07:46:41;7.40;86.40
10431;DHT22;5262;59.958;17.726;2023-04-03T07:49:07;8.10;86.70
10431;DHT22;5262;59.958;17.726;2023-04-03T07:51:33;8.00;83.90
10431;DHT22;5262;59.958;17.726;2023-04-03T07:53:59;9.00;83.90
10431;DHT22;5262;59.958;17.726;2023-04-03T07:56:24;8.70;81.70
10431;DHT22;5262;59.958;17.726;2023-04-03T07:58:50;8.40;80.50
10431;DHT22;5262;59.958;17.726;2023-04-03T08:01:16;8.20;79.80
10431;DHT22;5262;59.958;17.726;2023-04-03T08:03:42;9.10;77.30
10431;DHT22;5262;59.958;17.726;2023-04-03T08:06:09;9.40;78.40
10431;DHT22;5262;59.958;17.726;2023-04-03T08:08:35;9.90;76.50
10431;DHT22;5262;59.958;17.726;2023-04-03T08:11:02;9.70;72.70
10431;DHT22;5262;59.958;17.726;2023-04-03T08:13:29;10.20;72.70
10431;DHT22;5262;59.958;17.726;2023-04-03T08:15:56;10.90;69.80
10431;DHT22;5262;59.958;17.726;2023-04-03T08:18:23;10.10;67.90
10431;DHT22;5262;59.958;17.726;2023-04-03T08:20:51;10.20;68.60
10431;DHT22;5262;59.958;17.726;2023-04-03T08:23:17;11.00;67.40
10431;DHT22;5262;59.958;17.726;2023-04-03T08:25:43;11.00;66.30
10431;DHT22;5262;59.958;17.726;2023-04-03T08:28:10;10.80;65.70
10431;DHT22;5262;59.958;17.726;2023-04-03T08:30:39;11.30;65.10
10431;DHT22;5262;59.958;17.726;2023-04-03T08:33:05;10.80;63.50
10431;DHT22;5262;59.958;17.726;2023-04-03T08:35:31;11.60;62.20
10431;DHT22;5262;59.958;17.726;2023-04-03T08:37:57;11.80;64.20
10431;DHT22;5262;59.958;17.726;2023-04-03T08:40:23;11.60;63.20
10431;DHT22;5262;59.958;17.726;2023-04-03T08:48:08;12.60;60.90
10431;DHT22;5262;59.958;17.726;2023-04-03T08:50:40;12.60;57.30
10431;DHT22;5262;59.958;17.726;2023-04-03T08:53:14;12.40;57.10
10431;DHT22;5262;59.958;17.726;2023-04-03T08:55:45;11.30;59.20
10431;DHT22;5262;59.958;17.726;2023-04-03T08:58:19;12.20;58.90
10431;DHT22;5262;59.958;17.726;2023-04-03T09:00:49;12.90;57.10
10431;DHT22;5262;59.958;17.726;2023-04-03T09:03:20;13.00;54.10
10431;DHT22;5262;59.958;17.726;2023-04-03T09:11:09;12.60;56.20
10431;DHT22;5262;59.958;17.726;2023-04-03T09:14:11;12.60;55.40
10431;DHT22;5262;59.958;17.726;2023-04-03T09:16:54;13.20;52.90
10431;DHT22;5262;59.958;17.726;2023-04-03T09:22:16;13.40;53.00
10431;DHT22;5262;59.958;17.726;2023-04-03T09:24:45;13.90;51.20
10431;DHT22;5262;59.958;17.726;2023-04-03T09:27:12;12.80;52.00
10431;DHT22;5262;59.958;17.726;2023-04-03T09:29:41;13.20;52.90
10431;DHT22;5262;59.958;17.726;2023-04-03T09:32:30;12.90;52.40
10431;DHT22;5262;59.958;17.726;2023-04-03T09:37:55;13.20;51.30
10431;DHT22;5262;59.958;17.726;2023-04-03T09:40:33;12.90;50.50
10431;DHT22;5262;59.958;17.726;2023-04-03T09:45:42;13.80;49.50
10431;DHT22;5262;59.958;17.726;2023-04-03T09:53:42;12.90;52.00
10431;DHT22;5262;59.958;17.726;2023-04-03T09:59:07;12.90;49.30
10431;DHT22;5262;59.958;17.726;2023-04-03T10:01:39;13.70;49.20
10431;DHT22;5262;59.958;17.726;2023-04-03T10:04:13;13.70;49.90
10431;DHT22;5262;59.958;17.726;2023-04-03T10:06:42;13.10;48.30
10431;DHT22;5262;59.958;17.726;2023-04-03T10:09:27;13.70;48.00
10431;DHT22;5262;59.958;17.726;2023-04-03T10:12:08;13.90;48.60
10431;DHT22;5262;59.958;17.726;2023-04-03T10:14:37;13.80;48.30
10431;DHT22;5262;59.958;17.726;2023-04-03T10:19:40;12.50;47.30
10431;DHT22;5262;59.958;17.726;2023-04-03T10:25:20;14.60;47.60
10431;DHT22;5262;59.958;17.726;2023-04-03T10:31:18;14.20;46.10
10431;DHT22;5262;59.958;17.726;2023-04-03T10:34:02;14.60;44.90
10431;DHT22;5262;59.958;17.726;2023-04-03T10:39:17;13.80;46.70
10431;DHT22;5262;59.958;17.726;2023-04-03T10:44:52;13.80;45.10
10431;DHT22;5262;59.958;17.726;2023-04-03T10:52:56;13.10;42.60
10431;DHT22;5262;59.958;17.726;2023-04-03T10:58:38;13.90;41.80
10431;DHT22;5262;59.958;17.726;2023-04-03T11:01:32;14.20;43.50
10431;DHT22;5262;59.958;17.726;2023-04-03T11:04:00;14.50;42.30
10431;DHT22;5262;59.958;17.726;2023-04-03T11:07:00;15.00;41.50
10431;DHT22;5262;59.958;17.726;2023-04-03T11:09:37;15.20;41.00
10431;DHT22;5262;59.958;17.726;2023-04-03T11:14:37;14.30;40.60
10431;DHT22;5262;59.958;17.726;2023-04-03T11:22:29;14.10;38.50
10431;DHT22;5262;59.958;17.726;2023-04-03T11:27:37;12.50;40.30
10431;DHT22;5262;59.958;17.726;2023-04-03T11:30:07;13.20;40.80
10431;DHT22;5262;59.958;17.726;2023-04-03T11:35:37;14.30;39.10
10431;DHT22;5262;59.958;17.726;2023-04-03T11:38:33;13.20;37.10
10431;DHT22;5262;59.958;17.726;2023-04-03T11:41:03;13.60;36.30
10431;DHT22;5262;59.958;17.726;2023-04-03T11:43:31;12.70;37.10
10431;DHT22;5262;59.958;17.726;2023-04-03T11:46:00;13.40;38.50
10431;DHT22;5262;59.958;17.726;2023-04-03T11:50:54;12.00;37.00
10431;DHT22;5262;59.958;17.726;2023-04-03T11:53:36;13.30;37.80
10431;DHT22;5262;59.958;17.726;2023-04-03T12:04:17;12.90;38.40
10431;DHT22;5262;59.958;17.726;2023-04-03T12:11:49;11.10;36.70
10431;DHT22;5262;59.958;17.726;2023-04-03T12:14:15;11.40;39.80
10431;DHT22;5262;59.958;17.726;2023-04-03T12:16:45;10.80;39.00
10431;DHT22;5262;59.958;17.726;2023-04-03T12:27:16;10.90;39.10
10431;DHT22;5262;59.958;17.726;2023-04-03T12:29:53;9.70;39.90
10431;DHT22;5262;59.958;17.726;2023-04-03T12:35:19;8.80;41.80
10431;DHT22;5262;59.958;17.726;2023-04-03T12:38:20;9.30;42.30
10431;DHT22;5262;59.958;17.726;2023-04-03T12:48:48;8.80;43.60
10431;DHT22;5262;59.958;17.726;2023-04-03T12:51:22;8.70;42.60
10431;DHT22;5262;59.958;17.726;2023-04-03T12:53:58;8.80;41.90
10431;DHT22;5262;59.958;17.726;2023-04-03T12:56:31;8.60;42.90
10431;DHT22;5262;59.958;17.726;2023-04-03T12:59:32;8.00;42.80
10431;DHT22;5262;59.958;17.726;2023-04-03T13:02:00;8.40;43.30
10431;DHT22;5262;59.958;17.726;2023-04-03T13:04:31;8.70;42.50
10431;DHT22;5262;59.958;17.726;2023-04-03T13:06:57;8.40;41.50
10431;DHT22;5262;59.958;17.726;2023-04-03T13:09:29;8.40;43.00
10431;DHT22;5262;59.958;17.726;2023-04-03T13:12:01;7.70;41.80
10431;DHT22;5262;59.958;17.726;2023-04-03T13:14:28;8.00;43.00
10431;DHT22;5262;59.958;17.726;2023-04-03T13:17:00;8.10;43.30
10431;DHT22;5262;59.958;17.726;2023-04-03T13:19:28;7.90;43.20
10431;DHT22;5262;59.958;17.726;2023-04-03T13:22:02;8.10;43.50
10431;DHT22;5262;59.958;17.726;2023-04-03T13:24:32;7.50;44.80
10431;DHT22;5262;59.958;17.726;2023-04-03T13:26:59;7.40;42.90
10431;DHT22;5262;59.958;17.726;2023-04-03T13:29:29;7.30;43.30
10431;DHT22;5262;59.958;17.726;2023-04-03T13:31:55;7.10;45.30
10431;DHT22;5262;59.958;17.726;2023-04-03T13:34:23;7.40;44.90
10431;DHT22;5262;59.958;17.726;2023-04-03T13:41:52;7.00;44.50
10431;DHT22;5262;59.958;17.726;2023-04-03T13:46:48;7.60;44.50
10431;DHT22;5262;59.958;17.726;2023-04-03T13:49:19;7.50;44.00
10431;DHT22;5262;59.958;17.726;2023-04-03T13:51:45;7.20;43.20
10431;DHT22;5262;59.958;17.726;2023-04-03T13:54:24;6.80;43.80
10431;DHT22;5262;59.958;17.726;2023-04-03T13:56:56;6.80;42.60
10431;DHT22;5262;59.958;17.726;2023-04-03T13:59:35;6.80;41.60
10431;DHT22;5262;59.958;17.726;2023-04-03T14:04:33;6.70;41.00
10431;DHT22;5262;59.958;17.726;2023-04-03T14:07:10;6.50;43.30
10431;DHT22;5262;59.958;17.726;2023-04-03T14:09:35;6.80;43.00
10431;DHT22;5262;59.958;17.726;2023-04-03T14:12:31;6.70;41.60
10431;DHT22;5262;59.958;17.726;2023-04-03T14:15:02;6.20;41.60
10431;DHT22;5262;59.958;17.726;2023-04-03T14:17:28;6.50;44.20
10431;DHT22;5262;59.958;17.726;2023-04-03T14:19:58;6.50;41.60
10431;DHT22;5262;59.958;17.726;2023-04-03T14:22:25;6.60;41.80
10431;DHT22;5262;59.958;17.726;2023-04-03T14:24:52;6.70;42.40
10431;DHT22;5262;59.958;17.726;2023-04-03T14:27:24;6.80;42.00
10431;DHT22;5262;59.958;17.726;2023-04-03T14:29:51;6.30;41.90
10431;DHT22;5262;59.958;17.726;2023-04-03T14:32:19;6.10;42.50
10431;DHT22;5262;59.958;17.726;2023-04-03T14:34:46;5.80;43.40
10431;DHT22;5262;59.958;17.726;2023-04-03T14:37:18;6.10;44.60
10431;DHT22;5262;59.958;17.726;2023-04-03T14:39:44;5.80;42.70
10431;DHT22;5262;59.958;17.726;2023-04-03T14:42:13;5.90;43.60
10431;DHT22;5262;59.958;17.726;2023-04-03T14:44:40;5.70;42.30
10431;DHT22;5262;59.958;17.726;2023-04-03T14:47:10;6.10;44.40
10431;DHT22;5262;59.958;17.726;2023-04-03T14:49:36;6.00;43.00
10431;DHT22;5262;59.958;17.726;2023-04-03T14:52:01;5.60;43.10
10431;DHT22;5262;59.958;17.726;2023-04-03T14:54:27;5.70;42.90
10431;DHT22;5262;59.958;17.726;2023-04-03T14:57:10;5.80;43.00
10431;DHT22;5262;59.958;17.726;2023-04-03T14:59:38;5.80;42.10
10431;DHT22;5262;59.958;17.726;2023-04-03T15:04:50;5.80;44.10
10431;DHT22;5262;59.958;17.726;2023-04-03T15:07:16;5.70;44.20
10431;DHT22;5262;59.958;17.726;2023-04-03T15:09:41;5.70;44.00
10431;DHT22;5262;59.958;17.726;2023-04-03T15:12:08;5.80;46.10
10431;DHT22;5262;59.958;17.726;2023-04-03T15:14:33;5.50;43.50
10431;DHT22;5262;59.958;17.726;2023-04-03T15:16:59;5.60;45.50
10431;DHT22;5262;59.958;17.726;2023-04-03T15:19:25;5.60;44.30
10431;DHT22;5262;59.958;17.726;2023-04-03T15:21:51;5.50;43.70
10431;DHT22;5262;59.958;17.726;2023-04-03T15:24:16;5.10;44.50
10431;DHT22;5262;59.958;17.726;2023-04-03T15:26:42;5.20;43.40
10431;DHT22;5262;59.958;17.726;2023-04-03T15:29:08;5.20;46.30
10431;DHT22;5262;59.958;17.726;2023-04-03T15:31:34;5.20;44.40
10431;DHT22;5262;59.958;17.726;2023-04-03T15:33:59;5.20;44.20
10431;DHT22;5262;59.958;17.726;2023-04-03T15:36:25;5.10;44.10
10431;DHT22;5262;59.958;17.726;2023-04-03T15:38:51;5.00;44.60
10431;DHT22;5262;59.958;17.726;2023-04-03T15:41:17;5.00;45.30
10431;DHT22;5262;59.958;17.726;2023-04-03T15:43:42;4.70;45.50
10431;DHT22;5262;59.958;17.726;2023-04-03T15:46:08;4.60;45.30
10431;DHT22;5262;59.958;17.726;2023-04-03T15:48:34;4.70;47.40
10431;DHT22;5262;59.958;17.726;2023-04-03T15:51:01;4.70;45.70
10431;DHT22;5262;59.958;17.726;2023-04-03T15:53:26;4.80;46.10
10431;DHT22;5262;59.958;17.726;2023-04-03T15:55:52;4.70;45.40
10431;DHT22;5262;59.958;17.726;2023-04-03T15:58:18;4.70;45.50
10431;DHT22;5262;59.958;17.726;2023-04-03T16:00:43;4.60;46.80
10431;DHT22;5262;59.958;17.726;2023-04-03T16:03:16;4.60;46.10
10431;DHT22;5262;59.958;17.726;2023-04-03T16:05:42;4.60;46.10
10431;DHT22;5262;59.958;17.726;2023-04-03T16:08:08;4.40;47.30
10431;DHT22;5262;59.958;17.726;2023-04-03T16:10:35;4.30;48.50
10431;DHT22;5262;59.958;17.726;2023-04-03T16:13:02;4.30;51.40
10431;DHT22;5262;59.958;17.726;2023-04-03T16:15:28;4.20;47.40
10431;DHT22;5262;59.958;17.726;2023-04-03T16:17:54;4.20;48.90
10431;DHT22;5262;59.958;17.726;2023-04-03T16:20:20;4.10;50.00
10431;DHT22;5262;59.958;17.726;2023-04-03T16:22:47;4.00;51.40
10431;DHT22;5262;59.958;17.726;2023-04-03T16:25:13;3.90;49.30
10431;DHT22;5262;59.958;17.726;2023-04-03T16:27:39;3.80;49.00
10431;DHT22;5262;59.958;17.726;2023-04-03T16:30:06;3.80;48.90
10431;DHT22;5262;59.958;17.726;2023-04-03T16:32:32;3.60;48.30
10431;DHT22;5262;59.958;17.726;2023-04-03T16:34:58;3.50;50.10
10431;DHT22;5262;59.958;17.726;2023-04-03T16:37:24;3.40;53.10
10431;DHT22;5262;59.958;17.726;2023-04-03T16:39:51;3.00;56.00
10431;DHT22;5262;59.958;17.726;2023-04-03T16:42:16;2.60;57.30
10431;DHT22;5262;59.958;17.726;2023-04-03T16:44:42;2.70;55.90
10431;DHT22;5262;59.958;17.726;2023-04-03T16:47:08;2.80;55.90
10431;DHT22;5262;59.958;17.726;2023-04-03T16:49:35;2.80;54.40
10431;DHT22;5262;59.958;17.726;2023-04-03T16:52:02;2.70;54.10
10431;DHT22;5262;59.958;17.726;2023-04-03T16:54:28;2.40;56.10
10431;DHT22;5262;59.958;17.726;2023-04-03T16:56:55;2.40;55.70
10431;DHT22;5262;59.958;17.726;2023-04-03T16:59:21;2.30;54.70
10431;DHT22;5262;59.958;17.726;2023-04-03T17:01:46;1.80;61.20
10431;DHT22;5262;59.958;17.726;2023-04-03T17:04:12;1.70;62.30
10431;DHT22;5262;59.958;17.726;2023-04-03T17:06:38;1.30;66.40
10431;DHT22;5262;59.958;17.726;2023-04-03T17:09:04;1.20;69.90
10431;DHT22;5262;59.958;17.726;2023-04-03T17:11:31;1.10;69.20
10431;DHT22;5262;59.958;17.726;2023-04-03T17:13:57;1.00;70.90
10431;DHT22;5262;59.958;17.726;2023-04-03T17:16:23;0.70;73.20
10431;DHT22;5262;59.958;17.726;2023-04-03T17:18:49;0.60;73.70
10431;DHT22;5262;59.958;17.726;2023-04-03T17:21:15;0.50;74.80
10431;DHT22;5262;59.958;17.726;2023-04-03T17:23:44;0.30;73.20
10431;DHT22;5262;59.958;17.726;2023-04-03T17:26:10;0.30;74.50
10431;DHT22;5262;59.958;17.726;2023-04-03T17:28:37;0.20;73.80
10431;DHT22;5262;59.958;17.726;2023-04-03T17:31:05;0.00;75.30
10431;DHT22;5262;59.958;17.726;2023-04-03T17:33:31;-0.20;78.80
10431;DHT22;5262;59.958;17.726;2023-04-03T17:35:58;-0.30;79.70
10431;DHT22;5262;59.958;17.726;2023-04-03T17:38:24;-0.50;77.30
10431;DHT22;5262;59.958;17.726;2023-04-03T17:40:49;-0.60;78.90
10431;DHT22;5262;59.958;17.726;2023-04-03T17:43:15;-0.70;78.50
10431;DHT22;5262;59.958;17.726;2023-04-03T17:45:41;-0.70;80.00
10431;DHT22;5262;59.958;17.726;2023-04-03T17:48:06;-0.70;83.50